Walden, Colorado
Current Conditions -  °F | °C
As of 4:14 PM on Friday 31 Oct 2014 (Local Time) from K33V Reporting Station
Clear Clear  
Wind Chill: 59°   Ceiling: Unl
Heat Index: 59°   Visibility: 10mi
Dew Point: 19°   Wind: 13mph
Humidity: 22%   Direction: 230°SW
Pressure: 30.17"   Gusts: NA
Location:  40.73°N, 106.28°W
Report Text: K33V 312214Z AUTO 23011KT 10SM CLR 15/M07 A3017 RMK AO2
Loading
Personal Weather Stations






























Interactive Weather Map
Tropical Storm Tracking
New forecast layout! Learn more

10-Day Weather Forecast

Advertisements
Track Severe Weather on mobile